Terminal Aerodrome Forecast
Issued by NWS Jackson, KY

Home | Current Version | Previous Version | Graphics & Text | Print | Product List | Glossary On
Versions: 1 2 3 4 5 6 7 8 9 10 11 12 13 14
000
FTUS43 KJKL 280521
TAFJKL
TAF
KJKL 280521Z 2806/2906 00000KT P6SM SCT250
      TEMPO 2809/2812 4SM BR
     FM281300 00000KT P6SM SCT080 SCT250
     FM281800 VRB03KT P6SM BKN060=

USA.gov is the U.S. government's official web portal to all federal, state and local government web resources and services.